Time;durP1;ratioP1;P1;durP2;ratioP2;P2;SDS_P1;SDS_P2;PMS_P1;PMS_P2;Temp;Humidity;BMP_temperature;BMP_pressure;BME280_temperature;BME280_humidity;BME280_pressure;Samples;Min_cycle;Max_cycle;Signal;HPM_P1;HPM_P2
2022/11/03 00:00:35;;;;;;;4.63;1.30;;;;;17.50;101213.00;;;;5051893;28;20673;-79
2022/11/03 00:03:03;;;;;;;9.57;1.73;;;;;17.50;101217.00;;;;5051630;28;20192;-79
2022/11/03 00:08:16;;;;;;;5.78;1.25;;;;;17.50;101199.00;;;;5050323;28;20206;-78
2022/11/03 00:10:43;;;;;;;6.55;1.35;;;;;17.50;101204.00;;;;5056965;28;20199;-78
2022/11/03 00:13:11;;;;;;;9.98;1.25;;;;;17.50;101191.00;;;;5049496;28;20216;-79
2022/11/03 00:15:47;;;;;;;11.63;1.38;;;;;17.50;101184.00;;;;5064899;28;20202;-79
2022/11/03 00:18:14;;;;;;;3.58;1.17;;;;;17.40;101178.00;;;;5046299;28;20195;-78
2022/11/03 00:20:43;;;;;;;4.57;1.45;;;;;17.40;101172.00;;;;5063413;28;20199;-79
2022/11/03 00:23:10;;;;;;;2.50;0.95;;;;;17.40;101171.00;;;;5061274;28;20206;-78
2022/11/03 00:29:01;;;;;;;8.25;1.48;;;;;17.40;101159.00;;;;5047673;28;20240;-78
2022/11/03 00:31:30;;;;;;;4.05;1.33;;;;;17.40;101153.00;;;;5064430;28;20198;-78
2022/11/03 00:33:58;;;;;;;6.38;1.73;;;;;17.40;101139.00;;;;5058770;28;20235;-78
2022/11/03 00:36:28;;;;;;;3.85;1.30;;;;;17.30;101141.00;;;;5055413;28;20239;-79
2022/11/03 00:38:56;;;;;;;4.32;1.00;;;;;17.30;101138.00;;;;5049032;28;20207;-78
2022/11/03 00:41:25;;;;;;;7.20;1.38;;;;;17.30;101123.00;;;;5059299;28;20229;-78
2022/11/03 00:43:53;;;;;;;2.92;0.85;;;;;17.30;101132.00;;;;5049312;28;20206;-80
2022/11/03 00:46:22;;;;;;;2.70;1.08;;;;;17.30;101120.00;;;;5049125;28;20195;-78
2022/11/03 00:48:49;;;;;;;6.75;1.17;;;;;17.30;101122.00;;;;5047750;28;20203;-79
2022/11/03 00:51:18;;;;;;;3.85;1.00;;;;;17.30;101123.00;;;;5048232;28;20203;-78
2022/11/03 00:53:48;;;;;;;5.90;1.55;;;;;17.30;101119.00;;;;5052929;28;20752;-78
2022/11/03 00:56:17;;;;;;;5.03;0.80;;;;;17.30;101124.00;;;;5068200;28;20199;-79
2022/11/03 00:58:45;;;;;;;5.90;1.50;;;;;17.40;101117.00;;;;5054717;28;20204;-79
2022/11/03 01:01:14;;;;;;;6.72;1.25;;;;;17.40;101121.00;;;;5048317;28;20692;-78
2022/11/03 01:06:48;;;;;;;4.93;1.10;;;;;17.30;101127.00;;;;5048075;28;20207;-78
2022/11/03 01:06:50;;;;;;;3.55;1.00;;;;;17.30;101110.00;;;;5048841;28;20331;-78
2022/11/03 01:09:19;;;;;;;7.95;1.60;;;;;17.30;101116.00;;;;5059495;28;20206;-78
2022/11/03 01:11:53;;;;;;;5.13;1.40;;;;;17.30;101106.00;;;;5049256;28;20204;-78
2022/11/03 01:14:20;;;;;;;6.30;1.27;;;;;17.30;101110.00;;;;5052039;28;20221;-78
2022/11/03 01:16:47;;;;;;;8.63;2.08;;;;;17.30;101103.00;;;;5067512;28;20210;-78
2022/11/03 01:19:15;;;;;;;5.40;1.40;;;;;17.30;101107.00;;;;5054657;28;20668;-78
2022/11/03 01:21:43;;;;;;;8.35;1.77;;;;;17.30;101100.00;;;;5054606;28;20652;-78
2022/11/03 01:24:10;;;;;;;4.07;1.35;;;;;17.30;101102.00;;;;5047809;28;20982;-78
2022/11/03 01:26:39;;;;;;;3.95;0.95;;;;;17.30;101091.00;;;;5048069;28;20219;-79
2022/11/03 01:29:06;;;;;;;3.92;1.05;;;;;17.40;101081.00;;;;5065141;28;20716;-78
2022/11/03 01:31:33;;;;;;;7.38;1.40;;;;;17.40;101087.00;;;;5057505;28;20626;-79
2022/11/03 01:34:00;;;;;;;7.40;1.77;;;;;17.40;101083.00;;;;5046425;28;20239;-78
2022/11/03 01:36:28;;;;;;;2.80;0.95;;;;;17.40;101075.00;;;;5066008;28;20222;-79
2022/11/03 01:38:55;;;;;;;3.50;1.00;;;;;17.40;101075.00;;;;5058019;28;20199;-78
2022/11/03 01:41:24;;;;;;;2.75;1.00;;;;;17.40;101079.00;;;;5049999;28;20203;-78
2022/11/03 01:44:30;;;;;;;6.72;1.27;;;;;17.30;101060.00;;;;5052635;28;20207;-79
2022/11/03 01:47:02;;;;;;;6.50;1.45;;;;;17.40;101062.00;;;;5052385;28;20203;-78
2022/11/03 01:49:35;;;;;;;5.15;1.55;;;;;17.40;101060.00;;;;5049971;28;20847;-78
2022/11/03 01:52:09;;;;;;;5.07;1.10;;;;;17.40;101055.00;;;;5071553;28;20660;-79
2022/11/03 01:54:37;;;;;;;4.75;1.15;;;;;17.40;101054.00;;;;5054863;28;20225;-79
2022/11/03 01:57:09;;;;;;;6.10;1.48;;;;;17.40;101053.00;;;;5068285;28;20187;-78
2022/11/03 01:59:38;;;;;;;5.95;1.10;;;;;17.40;101053.00;;;;5064039;28;20200;-77
2022/11/03 02:02:06;;;;;;;4.45;1.25;;;;;17.40;101053.00;;;;5051710;28;20204;-78
2022/11/03 02:04:34;;;;;;;4.53;0.90;;;;;17.40;101047.00;;;;5052794;28;20674;-79
2022/11/03 02:07:11;;;;;;;11.80;1.23;;;;;17.40;101046.00;;;;5064876;28;20195;-78
2022/11/03 02:09:38;;;;;;;3.38;1.15;;;;;17.40;101042.00;;;;5051484;28;20395;-78
2022/11/03 02:12:07;;;;;;;4.80;1.38;;;;;17.40;101038.00;;;;5051097;28;20707;-78
2022/11/03 02:14:40;;;;;;;4.85;1.30;;;;;17.40;101040.00;;;;5054231;28;20715;-78
2022/11/03 02:17:11;;;;;;;4.63;1.35;;;;;17.40;101041.00;;;;5052116;28;20211;-78
2022/11/03 02:19:41;;;;;;;5.22;1.55;;;;;17.40;101027.00;;;;5050843;28;20227;-78
2022/11/03 02:22:25;;;;;;;4.15;1.27;;;;;17.40;101025.00;;;;5056164;28;20624;-79
2022/11/03 02:24:56;;;;;;;4.10;1.08;;;;;17.40;101026.00;;;;5058558;28;20669;-78
2022/11/03 02:27:25;;;;;;;4.88;1.20;;;;;17.40;101026.00;;;;5051321;28;20218;-78
2022/11/03 02:29:53;;;;;;;4.03;0.93;;;;;17.50;101013.00;;;;5051278;28;20211;-78
2022/11/03 02:32:25;;;;;;;5.18;1.40;;;;;17.40;101014.00;;;;5053441;28;20227;-78
2022/11/03 02:35:00;;;;;;;2.72;0.98;;;;;17.40;101022.00;;;;5060751;28;20234;-78
2022/11/03 02:37:31;;;;;;;7.30;1.38;;;;;17.50;101010.00;;;;5050550;28;20213;-79
2022/11/03 02:40:04;;;;;;;3.38;1.20;;;;;17.40;101010.00;;;;5052014;28;20199;-79
2022/11/03 02:42:35;;;;;;;4.07;1.52;;;;;17.50;100997.00;;;;5050616;28;20665;-78
2022/11/03 02:45:06;;;;;;;3.83;1.17;;;;;17.50;100994.00;;;;5051899;28;20572;-78
2022/11/03 02:47:36;;;;;;;4.07;0.73;;;;;17.50;100991.00;;;;5050683;28;20711;-78
2022/11/03 02:50:09;;;;;;;4.72;1.35;;;;;17.50;100979.00;;;;5051021;28;20199;-78
2022/11/03 02:52:41;;;;;;;2.67;1.05;;;;;17.50;100971.00;;;;5049643;28;20278;-78
2022/11/03 02:55:15;;;;;;;5.70;1.00;;;;;17.50;100972.00;;;;5050820;28;20238;-78
2022/11/03 02:57:50;;;;;;;2.10;0.73;;;;;17.50;100966.00;;;;5050409;28;20202;-79
2022/11/03 03:00:18;;;;;;;4.70;1.00;;;;;17.50;100958.00;;;;5060408;28;20216;-79
2022/11/03 03:02:55;;;;;;;8.63;1.65;;;;;17.50;100966.00;;;;5068572;28;20559;-78
2022/11/03 03:05:25;;;;;;;6.82;1.13;;;;;17.50;100967.00;;;;5049825;28;20191;-78
2022/11/03 03:07:57;;;;;;;5.13;1.33;;;;;17.50;100968.00;;;;5049729;28;20196;-78
2022/11/03 03:10:29;;;;;;;6.05;1.20;;;;;17.50;100958.00;;;;5053894;28;20202;-77
2022/11/03 03:13:01;;;;;;;5.05;1.30;;;;;17.50;100956.00;;;;5065369;28;20195;-78
2022/11/03 03:15:41;;;;;;;6.05;1.77;;;;;17.50;100947.00;;;;5050835;28;20670;-78
2022/11/03 03:18:20;;;;;;;6.03;1.08;;;;;17.50;100949.00;;;;5049923;28;20253;-78
2022/11/03 03:20:55;;;;;;;3.33;0.75;;;;;17.50;100952.00;;;;5049447;28;20203;-78
2022/11/03 03:23:25;;;;;;;3.50;0.95;;;;;17.60;100940.00;;;;5054637;28;20244;-78
2022/11/03 03:25:59;;;;;;;4.50;1.42;;;;;17.60;100937.00;;;;5049841;28;20211;-78
2022/11/03 03:28:34;;;;;;;3.75;0.98;;;;;17.60;100936.00;;;;5053017;28;20204;-78
2022/11/03 03:31:05;;;;;;;10.50;1.30;;;;;17.60;100934.00;;;;5057239;28;20202;-79
2022/11/03 03:33:34;;;;;;;10.05;1.48;;;;;17.70;100924.00;;;;5054810;28;20590;-78
2022/11/03 03:36:04;;;;;;;6.35;1.40;;;;;17.70;100912.00;;;;5050392;28;20200;-78
2022/11/03 03:38:37;;;;;;;3.33;0.90;;;;;17.70;100913.00;;;;5052256;28;20989;-78
2022/11/03 03:41:06;;;;;;;4.13;0.98;;;;;17.70;100917.00;;;;5008284;28;20408;-78
2022/11/03 03:43:36;;;;;;;6.07;1.17;;;;;17.70;100918.00;;;;4998791;28;20486;-79
2022/11/03 03:46:07;;;;;;;5.47;1.30;;;;;17.70;100918.00;;;;5048837;28;20211;-78
2022/11/03 03:48:34;;;;;;;3.47;1.17;;;;;17.80;100916.00;;;;5051136;28;20568;-79
2022/11/03 03:51:03;;;;;;;3.33;0.90;;;;;17.80;100909.00;;;;5048335;28;20207;-78
2022/11/03 03:53:31;;;;;;;4.63;1.08;;;;;17.80;100911.00;;;;5047607;28;20204;-78
2022/11/03 03:55:59;;;;;;;4.97;0.98;;;;;17.80;100910.00;;;;5048758;28;20286;-79
2022/11/03 03:58:26;;;;;;;4.15;1.20;;;;;17.80;100907.00;;;;5046717;28;20203;-78
2022/11/03 04:00:55;;;;;;;3.13;0.90;;;;;17.80;100897.00;;;;5046862;28;20206;-78
2022/11/03 04:03:23;;;;;;;4.72;1.48;;;;;17.80;100891.00;;;;5046659;28;20650;-79
2022/11/03 04:05:51;;;;;;;4.22;0.90;;;;;17.90;100891.00;;;;5051487;28;20206;-79
2022/11/03 04:08:19;;;;;;;4.88;0.85;;;;;17.90;100901.00;;;;5056988;28;20486;-79
2022/11/03 04:24:29;;;;;;;3.45;0.75;;;;;17.90;100884.00;;;;5047301;28;20214;-79
2022/11/03 04:27:01;;;;;;;4.57;1.50;;;;;17.90;100873.00;;;;5049230;28;20211;-78
2022/11/03 04:29:29;;;;;;;4.25;0.98;;;;;17.90;100871.00;;;;5048540;28;20527;-78
2022/11/03 04:31:57;;;;;;;1.77;0.82;;;;;17.90;100873.00;;;;5053583;28;20191;-78
2022/11/03 04:34:25;;;;;;;5.57;1.45;;;;;17.90;100863.00;;;;5059712;28;20715;-78
2022/11/03 04:36:52;;;;;;;4.82;1.20;;;;;17.90;100866.00;;;;5056165;28;20715;-78
2022/11/03 04:39:20;;;;;;;4.18;0.90;;;;;17.90;100859.00;;;;5063082;28;20206;-78
2022/11/03 04:41:48;;;;;;;4.15;1.13;;;;;17.90;100860.00;;;;5069237;28;20195;-79
2022/11/03 04:44:16;;;;;;;4.57;1.02;;;;;17.90;100854.00;;;;5050030;28;20196;-78
2022/11/03 04:46:45;;;;;;;2.75;1.00;;;;;17.90;100844.00;;;;5047877;28;20250;-79
2022/11/03 04:49:21;;;;;;;3.35;1.02;;;;;17.80;100849.00;;;;5048788;28;20269;-78
2022/11/03 04:51:49;;;;;;;3.50;0.90;;;;;17.90;100844.00;;;;5048260;28;20211;-78
2022/11/03 04:54:21;;;;;;;4.80;1.20;;;;;17.90;100837.00;;;;5047519;28;20758;-78
2022/11/03 04:56:48;;;;;;;5.05;1.13;;;;;17.90;100844.00;;;;5048742;28;20199;-78
2022/11/03 04:59:17;;;;;;;2.38;0.95;;;;;17.90;100830.00;;;;5049482;28;20196;-78
2022/11/03 05:01:45;;;;;;;3.42;1.35;;;;;17.90;100830.00;;;;5048645;28;20218;-79
2022/11/03 05:04:16;;;;;;;2.83;0.98;;;;;17.90;100830.00;;;;5047945;28;20214;-79
2022/11/03 05:06:52;;;;;;;4.25;1.10;;;;;17.80;100827.00;;;;5054179;28;20567;-78
2022/11/03 05:09:24;;;;;;;3.28;0.88;;;;;17.90;100826.00;;;;5068560;28;20210;-78
2022/11/03 05:11:52;;;;;;;1.80;0.70;;;;;17.90;100825.00;;;;5065835;28;20203;-79
2022/11/03 05:14:21;;;;;;;3.95;0.90;;;;;17.90;100822.00;;;;5050391;28;20705;-78
2022/11/03 05:16:52;;;;;;;3.35;1.23;;;;;17.90;100819.00;;;;5062150;28;20673;-78
2022/11/03 05:19:23;;;;;;;2.90;0.88;;;;;17.90;100817.00;;;;5067223;28;20724;-78
2022/11/03 05:21:52;;;;;;;2.88;1.00;;;;;17.90;100809.00;;;;5055126;28;20199;-78
2022/11/03 05:24:21;;;;;;;5.90;1.10;;;;;17.90;100806.00;;;;5046711;28;20685;-78
2022/11/03 05:26:49;;;;;;;3.65;0.88;;;;;17.90;100802.00;;;;5053270;28;20843;-78
2022/11/03 05:29:21;;;;;;;4.95;0.90;;;;;17.90;100797.00;;;;5061924;28;20681;-78
2022/11/03 05:31:50;;;;;;;6.05;1.10;;;;;17.90;100795.00;;;;5059967;28;20210;-79
2022/11/03 05:34:40;;;;;;;2.92;0.90;;;;;17.80;100792.00;;;;5059065;28;20231;-78
2022/11/03 05:37:24;;;;;;;6.47;1.05;;;;;17.80;100788.00;;;;5048311;28;20223;-78
2022/11/03 05:39:53;;;;;;;4.70;1.08;;;;;17.90;100791.00;;;;5053864;28;20203;-79
2022/11/03 05:42:34;;;;;;;3.83;0.75;;;;;17.80;100785.00;;;;5047408;28;20211;-78
2022/11/03 05:45:04;;;;;;;7.70;1.50;;;;;17.90;100772.00;;;;5048609;28;20211;-78
2022/11/03 05:47:36;;;;;;;3.60;1.00;;;;;17.90;100766.00;;;;5064229;28;20234;-78
2022/11/03 05:50:16;;;;;;;5.45;1.38;;;;;17.90;100766.00;;;;5060528;28;20195;-78
2022/11/03 05:52:45;;;;;;;5.82;1.10;;;;;18.00;100770.00;;;;5052434;28;20194;-78
2022/11/03 05:55:25;;;;;;;3.22;1.13;;;;;17.90;100769.00;;;;5058142;28;20224;-78
2022/11/03 05:57:53;;;;;;;4.15;1.45;;;;;18.00;100765.00;;;;5051996;28;20656;-78
2022/11/03 06:00:31;;;;;;;1.65;0.88;;;;;17.90;100768.00;;;;5056461;28;20204;-78
2022/11/03 06:02:59;;;;;;;4.20;0.85;;;;;18.00;100767.00;;;;5049091;28;20199;-78
2022/11/03 06:05:27;;;;;;;5.97;1.63;;;;;17.90;100758.00;;;;5056266;28;20187;-78
2022/11/03 06:07:57;;;;;;;8.25;1.33;;;;;18.00;100758.00;;;;5048980;28;20204;-78
2022/11/03 06:10:27;;;;;;;3.65;0.80;;;;;18.00;100756.00;;;;5047362;28;20573;-79
2022/11/03 06:12:59;;;;;;;1.90;0.90;;;;;18.00;100751.00;;;;5063759;28;20199;-78
2022/11/03 06:15:30;;;;;;;7.45;1.30;;;;;18.00;100746.00;;;;5050070;28;20234;-79
2022/11/03 06:17:59;;;;;;;3.20;1.10;;;;;18.00;100747.00;;;;5057373;28;20218;-78
2022/11/03 06:20:28;;;;;;;2.28;0.95;;;;;18.00;100744.00;;;;5046723;28;20196;-78
2022/11/03 06:22:57;;;;;;;3.17;1.30;;;;;18.00;100738.00;;;;5047624;28;20196;-78
2022/11/03 06:25:29;;;;;;;4.15;1.10;;;;;18.00;100729.00;;;;5049754;28;20203;-78
2022/11/03 06:28:00;;;;;;;5.43;1.20;;;;;18.00;100731.00;;;;5051208;28;20200;-78
2022/11/03 06:30:30;;;;;;;4.95;0.98;;;;;18.10;100718.00;;;;5050911;28;20187;-78
2022/11/03 06:33:01;;;;;;;5.15;1.17;;;;;18.10;100721.00;;;;5050518;28;20199;-78
2022/11/03 06:35:30;;;;;;;2.88;0.93;;;;;18.10;100726.00;;;;5050820;28;20220;-77
2022/11/03 06:37:59;;;;;;;1.58;0.65;;;;;18.10;100722.00;;;;5056037;28;20213;-77
2022/11/03 06:40:35;;;;;;;2.63;0.95;;;;;18.00;100716.00;;;;5070439;28;20242;-78
2022/11/03 06:43:16;;;;;;;6.30;1.10;;;;;18.00;100715.00;;;;5050041;28;20230;-78
2022/11/03 06:45:49;;;;;;;3.15;1.10;;;;;18.00;100712.00;;;;5055705;28;20664;-78
2022/11/03 06:48:23;;;;;;;3.55;0.90;;;;;18.10;100712.00;;;;5058767;28;20238;-78
2022/11/03 06:50:52;;;;;;;2.88;0.95;;;;;18.10;100712.00;;;;5065190;28;20190;-78
2022/11/03 06:53:27;;;;;;;3.88;0.95;;;;;18.10;100714.00;;;;5059719;28;20661;-77
2022/11/03 06:55:55;;;;;;;3.13;0.77;;;;;18.10;100713.00;;;;5048732;28;20245;-78
2022/11/03 06:58:30;;;;;;;5.05;1.23;;;;;18.10;100711.00;;;;5052352;28;20199;-75
2022/11/03 07:01:01;;;;;;;3.50;1.35;;;;;18.10;100703.00;;;;5054565;28;20344;-77
2022/11/03 07:03:32;;;;;;;3.05;1.17;;;;;18.10;100706.00;;;;5053240;28;20211;-77
2022/11/03 07:06:05;;;;;;;3.53;0.95;;;;;18.10;100700.00;;;;5058010;28;20343;-77
2022/11/03 07:08:37;;;;;;;5.57;1.23;;;;;18.10;100709.00;;;;5055869;28;20199;-78
2022/11/03 07:11:10;;;;;;;4.75;1.23;;;;;18.20;100708.00;;;;5053107;28;20210;-77
2022/11/03 07:13:37;;;;;;;4.63;1.52;;;;;18.20;100719.00;;;;5048261;28;20200;-77
2022/11/03 07:16:11;;;;;;;2.63;0.70;;;;;18.20;100719.00;;;;5054023;28;20678;-78
2022/11/03 07:18:41;;;;;;;5.07;1.10;;;;;18.20;100713.00;;;;5052146;28;20187;-79
2022/11/03 07:21:25;;;;;;;4.13;1.10;;;;;18.20;100715.00;;;;5058525;28;20253;-78
2022/11/03 07:23:53;;;;;;;3.13;1.02;;;;;18.30;100711.00;;;;5049892;28;20207;-78
2022/11/03 07:26:20;;;;;;;2.38;1.20;;;;;18.30;100711.00;;;;5050227;28;20655;-77
2022/11/03 07:28:48;;;;;;;5.35;1.80;;;;;18.30;100704.00;;;;5064383;28;20541;-78
2022/11/03 07:31:20;;;;;;;2.30;0.80;;;;;18.30;100705.00;;;;5068993;28;20195;-78
2022/11/03 07:33:47;;;;;;;3.63;1.00;;;;;18.30;100693.00;;;;5055786;28;20224;-79
2022/11/03 07:36:18;;;;;;;2.85;0.93;;;;;18.30;100697.00;;;;5047734;28;20266;-78
2022/11/03 07:38:48;;;;;;;4.55;1.15;;;;;18.40;100697.00;;;;5049556;28;20208;-78
2022/11/03 07:41:19;;;;;;;4.55;1.27;;;;;18.40;100692.00;;;;5048995;28;20208;-78
2022/11/03 07:43:52;;;;;;;3.95;1.25;;;;;18.40;100690.00;;;;5049117;28;20192;-79
2022/11/03 07:46:21;;;;;;;1.95;0.80;;;;;18.40;100693.00;;;;5063314;28;20202;-78
2022/11/03 07:48:50;;;;;;;4.53;1.15;;;;;18.40;100690.00;;;;5067420;28;20222;-77
2022/11/03 07:51:22;;;;;;;2.65;1.08;;;;;18.40;100688.00;;;;5068568;28;20195;-78
2022/11/03 07:53:52;;;;;;;4.60;1.10;;;;;18.40;100690.00;;;;5068676;28;20195;-78
2022/11/03 07:56:22;;;;;;;3.17;1.02;;;;;18.40;100695.00;;;;5067921;28;20233;-78
2022/11/03 07:58:52;;;;;;;4.45;1.17;;;;;18.50;100690.00;;;;5068973;28;20206;-78
2022/11/03 08:01:28;;;;;;;3.30;1.10;;;;;18.40;100691.00;;;;5067296;28;20211;-79
2022/11/03 08:04:00;;;;;;;3.80;1.13;;;;;18.50;100687.00;;;;5049438;28;20218;-79
2022/11/03 08:06:28;;;;;;;6.35;1.50;;;;;18.50;100699.00;;;;5048765;28;20207;-78
2022/11/03 08:08:55;;;;;;;5.35;0.88;;;;;18.60;100682.00;;;;5049710;28;20200;-78
2022/11/03 08:11:23;;;;;;;3.20;1.35;;;;;18.60;100678.00;;;;5048466;28;20211;-79
2022/11/03 08:13:51;;;;;;;4.57;1.58;;;;;18.60;100675.00;;;;5049146;28;20694;-79
2022/11/03 08:16:18;;;;;;;4.45;1.02;;;;;18.60;100678.00;;;;5052828;28;20229;-79
2022/11/03 08:18:46;;;;;;;3.25;1.30;;;;;18.60;100680.00;;;;5052449;28;20207;-79
2022/11/03 08:21:13;;;;;;;5.63;1.20;;;;;18.70;100670.00;;;;5069151;28;20210;-79
2022/11/03 08:23:42;;;;;;;3.60;1.20;;;;;18.70;100673.00;;;;5067663;28;20210;-79
2022/11/03 08:26:09;;;;;;;5.35;1.02;;;;;18.70;100668.00;;;;5068225;28;20202;-78
2022/11/03 08:28:36;;;;;;;6.10;1.70;;;;;18.80;100657.00;;;;5068718;28;20209;-78
2022/11/03 08:31:04;;;;;;;3.25;0.80;;;;;18.80;100654.00;;;;5068151;28;20772;-77
2022/11/03 08:33:32;;;;;;;4.63;1.48;;;;;18.80;100639.00;;;;5068619;28;20371;-78
2022/11/03 08:36:00;;;;;;;6.68;1.48;;;;;18.80;100636.00;;;;5063922;28;20357;-78
2022/11/03 08:38:27;;;;;;;3.47;1.20;;;;;18.80;100632.00;;;;5048340;28;20599;-78
2022/11/03 08:40:57;;;;;;;3.95;1.13;;;;;18.80;100624.00;;;;5049080;28;20207;-78
2022/11/03 08:43:24;;;;;;;2.85;1.17;;;;;18.90;100622.00;;;;5048770;28;20203;-79
2022/11/03 08:45:52;;;;;;;4.43;0.95;;;;;18.90;100608.00;;;;5048027;28;20199;-78
2022/11/03 08:48:20;;;;;;;3.10;0.88;;;;;18.90;100601.00;;;;5062786;28;20266;-78
2022/11/03 08:50:49;;;;;;;2.85;1.38;;;;;18.90;100600.00;;;;5068536;28;20198;-78
2022/11/03 08:53:16;;;;;;;3.00;0.95;;;;;19.00;100589.00;;;;5062114;28;20200;-78
2022/11/03 08:55:43;;;;;;;3.80;1.17;;;;;19.00;100586.00;;;;5048583;28;20724;-78
2022/11/03 08:58:12;;;;;;;6.43;1.45;;;;;19.00;100583.00;;;;5048272;28;20604;-78
2022/11/03 09:00:39;;;;;;;1.90;0.90;;;;;19.10;100583.00;;;;5048318;28;20207;-78
2022/11/03 09:03:07;;;;;;;5.80;1.02;;;;;19.10;100586.00;;;;5048546;28;20199;-78
2022/11/03 09:05:34;;;;;;;5.30;1.20;;;;;19.10;100565.00;;;;5047940;28;20222;-78
2022/11/03 09:08:01;;;;;;;5.25;1.23;;;;;19.20;100567.00;;;;5066607;28;20213;-78
2022/11/03 09:10:29;;;;;;;5.20;1.30;;;;;19.20;100555.00;;;;5060043;28;20764;-78
2022/11/03 09:12:56;;;;;;;3.35;1.15;;;;;19.30;100537.00;;;;5048542;28;20199;-78
2022/11/03 09:15:25;;;;;;;3.22;1.23;;;;;19.30;100534.00;;;;5050454;28;20227;-78
2022/11/03 09:17:52;;;;;;;6.28;1.55;;;;;19.40;100535.00;;;;5055044;28;20680;-79
2022/11/03 09:20:20;;;;;;;4.50;1.10;;;;;19.40;100524.00;;;;5047842;28;20195;-79
2022/11/03 09:22:47;;;;;;;4.47;1.20;;;;;19.40;100510.00;;;;5048788;28;20253;-78
2022/11/03 09:25:14;;;;;;;5.15;1.65;;;;;19.40;100498.00;;;;5048817;28;20207;-79
2022/11/03 09:27:42;;;;;;;3.17;1.25;;;;;19.50;100503.00;;;;5051872;28;20206;-77
2022/11/03 09:30:10;;;;;;;5.00;1.50;;;;;19.50;100493.00;;;;5067668;28;20191;-77
2022/11/03 09:32:39;;;;;;;2.85;1.13;;;;;19.60;100487.00;;;;5068334;28;20210;-78
2022/11/03 09:35:07;;;;;;;4.88;1.05;;;;;19.60;100478.00;;;;5068089;28;20227;-77
2022/11/03 09:37:34;;;;;;;5.45;1.67;;;;;19.60;100475.00;;;;5067868;28;20661;-78
2022/11/03 09:40:03;;;;;;;3.35;1.40;;;;;19.70;100469.00;;;;5068274;28;20202;-77
2022/11/03 09:42:33;;;;;;;3.47;1.15;;;;;19.70;100464.00;;;;5067880;28;20203;-78
2022/11/03 09:45:01;;;;;;;3.65;1.55;;;;;19.80;100464.00;;;;5059709;28;20192;-77
2022/11/03 09:47:31;;;;;;;9.85;1.33;;;;;19.80;100453.00;;;;5058188;28;20567;-77
2022/11/03 09:50:00;;;;;;;4.53;1.23;;;;;19.80;100454.00;;;;5047527;28;20200;-78
2022/11/03 09:52:28;;;;;;;5.30;1.30;;;;;19.90;100454.00;;;;5048411;28;20202;-79
2022/11/03 09:54:56;;;;;;;4.80;1.77;;;;;20.00;100446.00;;;;5047969;28;20203;-79
2022/11/03 09:57:26;;;;;;;4.20;1.13;;;;;20.00;100444.00;;;;5047252;28;20234;-79
2022/11/03 09:59:53;;;;;;;6.00;1.30;;;;;20.00;100447.00;;;;5049282;28;20211;-78
2022/11/03 10:02:24;;;;;;;5.03;1.60;;;;;20.10;100432.00;;;;5052405;28;20207;-80
2022/11/03 10:04:53;;;;;;;4.30;1.13;;;;;20.10;100431.00;;;;5051688;28;20207;-79
2022/11/03 10:07:22;;;;;;;5.40;1.20;;;;;20.10;100430.00;;;;5062739;28;20298;-79
2022/11/03 10:09:52;;;;;;;4.68;1.60;;;;;20.10;100429.00;;;;5071409;28;20210;-78
2022/11/03 10:12:20;;;;;;;8.63;1.17;;;;;20.20;100417.00;;;;5071264;28;20195;-78
2022/11/03 10:14:48;;;;;;;3.53;1.00;;;;;20.10;100413.00;;;;5065453;28;20211;-78
2022/11/03 10:17:18;;;;;;;6.03;1.75;;;;;20.10;100412.00;;;;5050681;28;20692;-79
2022/11/03 10:19:49;;;;;;;2.97;0.93;;;;;20.10;100406.00;;;;5051224;28;20592;-78
2022/11/03 10:22:17;;;;;;;3.47;1.40;;;;;20.10;100403.00;;;;5050488;28;20558;-78
2022/11/03 10:24:46;;;;;;;4.82;1.48;;;;;20.10;100409.00;;;;5051656;28;20210;-78
2022/11/03 10:27:25;;;;;;;4.15;1.30;;;;;20.00;100401.00;;;;5050044;28;20588;-79
2022/11/03 10:30:08;;;;;;;7.50;1.75;;;;;20.00;100402.00;;;;5051224;28;20611;-78
2022/11/03 10:32:35;;;;;;;4.75;1.20;;;;;20.10;100398.00;;;;5051013;28;20195;-77
2022/11/03 10:35:23;;;;;;;2.78;1.10;;;;;20.10;100394.00;;;;5051351;28;20499;-78
2022/11/03 10:37:50;;;;;;;7.05;1.30;;;;;20.10;100392.00;;;;5050419;28;20303;-78
2022/11/03 10:40:35;;;;;;;2.30;0.80;;;;;19.90;100378.00;;;;5050727;28;20596;-78
2022/11/03 10:43:02;;;;;;;3.38;1.40;;;;;20.10;100376.00;;;;5051275;28;20204;-78
2022/11/03 10:45:30;;;;;;;13.68;2.85;;;;;20.00;100369.00;;;;5050432;28;20204;-78
2022/11/03 10:48:01;;;;;;;2.92;1.05;;;;;20.00;100349.00;;;;5054640;28;20253;-78
2022/11/03 10:50:29;;;;;;;5.80;1.33;;;;;20.10;100346.00;;;;5068053;28;20221;-78
2022/11/03 10:52:57;;;;;;;2.85;1.00;;;;;20.10;100347.00;;;;5059198;28;20210;-79
2022/11/03 10:55:26;;;;;;;6.32;1.00;;;;;20.10;100335.00;;;;5049294;28;20226;-78
2022/11/03 10:57:55;;;;;;;3.90;1.10;;;;;20.10;100341.00;;;;5048728;28;20239;-78
2022/11/03 11:00:23;;;;;;;4.00;1.20;;;;;20.10;100324.00;;;;5048627;28;20208;-78
2022/11/03 11:02:55;;;;;;;3.92;1.17;;;;;20.20;100312.00;;;;5048662;28;20252;-77
2022/11/03 11:05:24;;;;;;;2.03;0.93;;;;;20.20;100307.00;;;;5066525;28;21068;-78
2022/11/03 11:07:53;;;;;;;3.55;0.88;;;;;20.20;100311.00;;;;5053728;28;20365;-78
2022/11/03 11:10:23;;;;;;;2.08;1.00;;;;;20.20;100320.00;;;;5064036;28;20207;-78
2022/11/03 11:13:05;;;;;;;2.97;1.33;;;;;20.10;100330.00;;;;5069860;28;20201;-77
2022/11/03 11:15:40;;;;;;;3.17;0.90;;;;;20.20;100318.00;;;;5065002;28;20200;-78
2022/11/03 11:18:07;;;;;;;2.95;1.52;;;;;20.30;100313.00;;;;5050237;28;20202;-78
2022/11/03 11:20:37;;;;;;;3.85;1.17;;;;;20.30;100310.00;;;;5050577;28;20203;-78
2022/11/03 11:23:47;;;;;;;3.22;1.10;;;;;20.20;100311.00;;;;5050681;28;20227;-77
2022/11/03 11:26:29;;;;;;;2.38;0.85;;;;;20.30;100310.00;;;;5067384;28;20210;-78
2022/11/03 11:29:41;;;;;;;3.30;0.90;;;;;20.30;100311.00;;;;5069750;28;20210;-77
2022/11/03 11:32:48;;;;;;;4.97;1.02;;;;;20.30;100296.00;;;;5052479;28;20211;-78
2022/11/03 11:36:05;;;;;;;4.18;0.80;;;;;20.30;100290.00;;;;5051590;28;20625;-78
2022/11/03 11:39:09;;;;;;;3.13;1.60;;;;;20.40;100281.00;;;;5051897;28;20223;-77
2022/11/03 11:42:05;;;;;;;2.65;0.95;;;;;20.40;100274.00;;;;5049535;28;20198;-78
2022/11/03 11:44:53;;;;;;;3.03;1.10;;;;;20.50;100266.00;;;;5049691;28;20246;-78
2022/11/03 11:47:43;;;;;;;3.40;1.20;;;;;20.50;100260.00;;;;5048713;28;20204;-79
2022/11/03 11:50:22;;;;;;;3.03;1.00;;;;;20.60;100252.00;;;;5044604;28;20215;-78
2022/11/03 11:52:56;;;;;;;3.50;0.80;;;;;20.70;100241.00;;;;5048808;28;20207;-79
2022/11/03 11:55:32;;;;;;;2.47;0.90;;;;;20.70;100239.00;;;;5048561;28;20813;-78
2022/11/03 11:58:01;;;;;;;3.40;1.08;;;;;20.90;100230.00;;;;5054962;28;20215;-78
2022/11/03 12:00:31;;;;;;;3.38;1.30;;;;;20.90;100219.00;;;;5054345;28;20569;-78
2022/11/03 12:03:00;;;;;;;3.63;0.93;;;;;21.00;100217.00;;;;5068820;28;20195;-79
2022/11/03 12:05:32;;;;;;;3.00;1.45;;;;;21.10;100204.00;;;;5048943;28;20199;-78
2022/11/03 12:07:59;;;;;;;1.95;0.98;;;;;21.10;100221.00;;;;5056356;28;20203;-78
2022/11/03 12:10:30;;;;;;;2.13;0.82;;;;;21.20;100197.00;;;;5065542;28;20202;-78
2022/11/03 12:12:59;;;;;;;2.85;1.08;;;;;21.20;100188.00;;;;5049205;28;20195;-78
2022/11/03 12:15:48;;;;;;;3.83;0.98;;;;;21.10;100176.00;;;;5050420;28;20230;-78
2022/11/03 12:18:32;;;;;;;3.28;0.90;;;;;21.10;100180.00;;;;5048259;28;20353;-78
2022/11/03 12:21:01;;;;;;;4.30;1.02;;;;;21.30;100162.00;;;;5048749;28;20195;-78
2022/11/03 12:23:36;;;;;;;1.75;0.85;;;;;21.30;100157.00;;;;5047894;28;20577;-78
2022/11/03 12:26:04;;;;;;;3.38;1.05;;;;;21.40;100157.00;;;;5049200;28;20202;-78
2022/11/03 12:28:33;;;;;;;3.15;0.82;;;;;21.40;100152.00;;;;5048576;28;20207;-78
2022/11/03 12:31:01;;;;;;;2.97;1.15;;;;;21.50;100153.00;;;;5047982;28;20204;-78
2022/11/03 12:33:28;;;;;;;2.13;0.90;;;;;21.60;100154.00;;;;5048216;28;20776;-78
2022/11/03 12:35:55;;;;;;;4.68;1.08;;;;;21.60;100153.00;;;;5049039;28;20261;-78
2022/11/03 12:38:24;;;;;;;5.68;1.05;;;;;21.70;100150.00;;;;5048642;28;20231;-78
2022/11/03 12:40:53;;;;;;;4.25;1.10;;;;;21.70;100150.00;;;;5048882;28;20199;-78
2022/11/03 12:43:20;;;;;;;5.43;0.80;;;;;21.80;100141.00;;;;5048728;28;20246;-79
2022/11/03 12:45:47;;;;;;;1.83;1.05;;;;;21.90;100147.00;;;;5047632;28;20748;-78
2022/11/03 12:48:15;;;;;;;3.20;0.90;;;;;22.00;100140.00;;;;5048278;28;20649;-78